sensor_id;sensor_type;location;lat;lon;timestamp;P1;durP1;ratioP1;P2;durP2;ratioP2
50932;SDS011;36921;49.006;9.292;2022-10-17T00:01:21;8.23;;;2.70;;
50932;SDS011;36921;49.006;9.292;2022-10-17T00:03:46;4.05;;;2.40;;
50932;SDS011;36921;49.006;9.292;2022-10-17T00:06:13;3.30;;;2.28;;
50932;SDS011;36921;49.006;9.292;2022-10-17T00:08:39;8.25;;;2.40;;
50932;SDS011;36921;49.006;9.292;2022-10-17T00:11:08;3.60;;;2.30;;
50932;SDS011;36921;49.006;9.292;2022-10-17T00:13:37;6.82;;;2.42;;
50932;SDS011;36921;49.006;9.292;2022-10-17T00:16:03;7.53;;;2.33;;
50932;SDS011;36921;49.006;9.292;2022-10-17T00:18:28;4.80;;;2.25;;
50932;SDS011;36921;49.006;9.292;2022-10-17T00:20:54;5.63;;;2.47;;
50932;SDS011;36921;49.006;9.292;2022-10-17T00:23:19;12.15;;;2.20;;
50932;SDS011;36921;49.006;9.292;2022-10-17T00:25:44;7.75;;;2.20;;
50932;SDS011;36921;49.006;9.292;2022-10-17T00:28:10;3.88;;;2.00;;
50932;SDS011;36921;49.006;9.292;2022-10-17T00:30:36;5.40;;;1.80;;
50932;SDS011;36921;49.006;9.292;2022-10-17T00:33:02;3.30;;;2.30;;
50932;SDS011;36921;49.006;9.292;2022-10-17T00:35:27;4.50;;;2.10;;
50932;SDS011;36921;49.006;9.292;2022-10-17T00:37:52;4.68;;;2.33;;
50932;SDS011;36921;49.006;9.292;2022-10-17T00:40:18;12.75;;;2.03;;
50932;SDS011;36921;49.006;9.292;2022-10-17T00:42:43;4.18;;;2.22;;
50932;SDS011;36921;49.006;9.292;2022-10-17T00:47:59;6.28;;;2.22;;
50932;SDS011;36921;49.006;9.292;2022-10-17T00:50:29;5.13;;;1.67;;
50932;SDS011;36921;49.006;9.292;2022-10-17T00:52:55;6.30;;;2.50;;
50932;SDS011;36921;49.006;9.292;2022-10-17T00:55:27;5.75;;;2.20;;
50932;SDS011;36921;49.006;9.292;2022-10-17T00:57:57;8.65;;;2.15;;
50932;SDS011;36921;49.006;9.292;2022-10-17T01:00:26;6.82;;;1.98;;
50932;SDS011;36921;49.006;9.292;2022-10-17T01:02:52;6.05;;;1.80;;
50932;SDS011;36921;49.006;9.292;2022-10-17T01:05:18;3.08;;;1.90;;
50932;SDS011;36921;49.006;9.292;2022-10-17T01:07:44;10.93;;;2.50;;
50932;SDS011;36921;49.006;9.292;2022-10-17T01:10:11;5.40;;;2.20;;
50932;SDS011;36921;49.006;9.292;2022-10-17T01:15:32;5.10;;;2.47;;
50932;SDS011;36921;49.006;9.292;2022-10-17T01:26:02;5.68;;;2.38;;
50932;SDS011;36921;49.006;9.292;2022-10-17T01:32:09;4.47;;;2.17;;
50932;SDS011;36921;49.006;9.292;2022-10-17T01:34:33;6.18;;;1.98;;
50932;SDS011;36921;49.006;9.292;2022-10-17T01:37:07;3.58;;;2.33;;
50932;SDS011;36921;49.006;9.292;2022-10-17T01:39:40;5.15;;;2.58;;
50932;SDS011;36921;49.006;9.292;2022-10-17T01:42:24;5.00;;;2.60;;
50932;SDS011;36921;49.006;9.292;2022-10-17T01:44:58;4.07;;;2.20;;
50932;SDS011;36921;49.006;9.292;2022-10-17T01:47:26;5.10;;;2.40;;
50932;SDS011;36921;49.006;9.292;2022-10-17T01:52:22;4.43;;;2.55;;
50932;SDS011;36921;49.006;9.292;2022-10-17T01:54:52;4.55;;;2.47;;
50932;SDS011;36921;49.006;9.292;2022-10-17T01:57:31;7.78;;;2.28;;
50932;SDS011;36921;49.006;9.292;2022-10-17T02:00:00;7.32;;;2.30;;
50932;SDS011;36921;49.006;9.292;2022-10-17T02:02:28;5.07;;;2.03;;
50932;SDS011;36921;49.006;9.292;2022-10-17T02:04:55;5.78;;;2.25;;
50932;SDS011;36921;49.006;9.292;2022-10-17T02:07:21;5.63;;;2.45;;
50932;SDS011;36921;49.006;9.292;2022-10-17T02:09:46;7.20;;;2.50;;
50932;SDS011;36921;49.006;9.292;2022-10-17T02:14:59;5.50;;;2.17;;
50932;SDS011;36921;49.006;9.292;2022-10-17T02:17:51;8.23;;;2.28;;
50932;SDS011;36921;49.006;9.292;2022-10-17T02:28:28;4.15;;;2.38;;
50932;SDS011;36921;49.006;9.292;2022-10-17T02:33:49;4.43;;;2.42;;
50932;SDS011;36921;49.006;9.292;2022-10-17T02:36:21;9.35;;;2.25;;
50932;SDS011;36921;49.006;9.292;2022-10-17T02:38:49;14.60;;;2.20;;
50932;SDS011;36921;49.006;9.292;2022-10-17T02:41:17;7.10;;;2.20;;
50932;SDS011;36921;49.006;9.292;2022-10-17T02:43:44;5.18;;;2.08;;
50932;SDS011;36921;49.006;9.292;2022-10-17T02:46:13;5.78;;;2.10;;
50932;SDS011;36921;49.006;9.292;2022-10-17T02:48:47;3.42;;;2.17;;
50932;SDS011;36921;49.006;9.292;2022-10-17T02:56:24;3.67;;;2.15;;
50932;SDS011;36921;49.006;9.292;2022-10-17T02:58:53;8.05;;;2.20;;
50932;SDS011;36921;49.006;9.292;2022-10-17T03:01:21;11.05;;;2.28;;
50932;SDS011;36921;49.006;9.292;2022-10-17T03:03:48;5.72;;;3.33;;
50932;SDS011;36921;49.006;9.292;2022-10-17T03:06:13;5.75;;;1.80;;
50932;SDS011;36921;49.006;9.292;2022-10-17T03:08:38;5.57;;;2.25;;
50932;SDS011;36921;49.006;9.292;2022-10-17T03:11:03;6.00;;;2.25;;
50932;SDS011;36921;49.006;9.292;2022-10-17T03:13:29;2.58;;;1.90;;
50932;SDS011;36921;49.006;9.292;2022-10-17T03:15:55;10.43;;;2.58;;
50932;SDS011;36921;49.006;9.292;2022-10-17T03:18:20;3.47;;;2.00;;
50932;SDS011;36921;49.006;9.292;2022-10-17T03:20:46;7.30;;;2.72;;
50932;SDS011;36921;49.006;9.292;2022-10-17T03:23:11;7.13;;;2.30;;
50932;SDS011;36921;49.006;9.292;2022-10-17T03:25:36;3.58;;;2.33;;
50932;SDS011;36921;49.006;9.292;2022-10-17T03:28:02;8.27;;;3.35;;
50932;SDS011;36921;49.006;9.292;2022-10-17T03:30:29;7.82;;;2.45;;
50932;SDS011;36921;49.006;9.292;2022-10-17T03:32:58;3.15;;;2.10;;
50932;SDS011;36921;49.006;9.292;2022-10-17T03:35:23;5.03;;;2.15;;
50932;SDS011;36921;49.006;9.292;2022-10-17T03:37:49;3.35;;;1.73;;
50932;SDS011;36921;49.006;9.292;2022-10-17T03:40:14;8.80;;;2.47;;
50932;SDS011;36921;49.006;9.292;2022-10-17T03:42:39;4.75;;;2.42;;
50932;SDS011;36921;49.006;9.292;2022-10-17T03:45:05;3.53;;;2.03;;
50932;SDS011;36921;49.006;9.292;2022-10-17T03:47:30;5.55;;;1.88;;
50932;SDS011;36921;49.006;9.292;2022-10-17T03:49:56;6.53;;;1.92;;
50932;SDS011;36921;49.006;9.292;2022-10-17T03:52:21;4.88;;;2.17;;
50932;SDS011;36921;49.006;9.292;2022-10-17T03:54:48;6.80;;;2.47;;
50932;SDS011;36921;49.006;9.292;2022-10-17T03:57:14;7.80;;;2.38;;
50932;SDS011;36921;49.006;9.292;2022-10-17T03:59:39;4.55;;;2.60;;
50932;SDS011;36921;49.006;9.292;2022-10-17T04:02:05;5.70;;;2.72;;
50932;SDS011;36921;49.006;9.292;2022-10-17T04:04:30;5.07;;;3.08;;
50932;SDS011;36921;49.006;9.292;2022-10-17T04:06:55;6.57;;;2.70;;
50932;SDS011;36921;49.006;9.292;2022-10-17T04:09:21;9.90;;;2.70;;
50932;SDS011;36921;49.006;9.292;2022-10-17T04:11:46;10.57;;;3.00;;
50932;SDS011;36921;49.006;9.292;2022-10-17T04:14:11;10.95;;;3.10;;
50932;SDS011;36921;49.006;9.292;2022-10-17T04:16:37;4.93;;;2.90;;
50932;SDS011;36921;49.006;9.292;2022-10-17T04:19:02;7.78;;;2.70;;
50932;SDS011;36921;49.006;9.292;2022-10-17T04:21:28;13.85;;;3.17;;
50932;SDS011;36921;49.006;9.292;2022-10-17T04:23:54;13.43;;;3.47;;
50932;SDS011;36921;49.006;9.292;2022-10-17T04:26:22;7.07;;;3.08;;
50932;SDS011;36921;49.006;9.292;2022-10-17T04:28:48;3.30;;;2.40;;
50932;SDS011;36921;49.006;9.292;2022-10-17T04:31:14;7.15;;;2.42;;
50932;SDS011;36921;49.006;9.292;2022-10-17T04:33:40;4.28;;;2.60;;
50932;SDS011;36921;49.006;9.292;2022-10-17T04:36:06;7.40;;;2.70;;
50932;SDS011;36921;49.006;9.292;2022-10-17T04:38:35;3.63;;;2.33;;
50932;SDS011;36921;49.006;9.292;2022-10-17T04:41:01;5.72;;;2.70;;
50932;SDS011;36921;49.006;9.292;2022-10-17T04:43:29;5.00;;;2.20;;
50932;SDS011;36921;49.006;9.292;2022-10-17T04:45:58;7.85;;;2.55;;
50932;SDS011;36921;49.006;9.292;2022-10-17T04:48:25;8.02;;;2.63;;
50932;SDS011;36921;49.006;9.292;2022-10-17T04:50:56;3.67;;;2.17;;
50932;SDS011;36921;49.006;9.292;2022-10-17T04:53:23;4.00;;;2.28;;
50932;SDS011;36921;49.006;9.292;2022-10-17T04:55:49;8.20;;;2.70;;
50932;SDS011;36921;49.006;9.292;2022-10-17T04:58:14;5.97;;;2.08;;
50932;SDS011;36921;49.006;9.292;2022-10-17T05:00:40;4.70;;;2.33;;
50932;SDS011;36921;49.006;9.292;2022-10-17T05:03:06;4.35;;;2.30;;
50932;SDS011;36921;49.006;9.292;2022-10-17T05:05:31;6.95;;;2.63;;
50932;SDS011;36921;49.006;9.292;2022-10-17T05:07:57;5.57;;;2.42;;
50932;SDS011;36921;49.006;9.292;2022-10-17T05:10:22;4.13;;;2.40;;
50932;SDS011;36921;49.006;9.292;2022-10-17T05:12:48;4.35;;;2.08;;
50932;SDS011;36921;49.006;9.292;2022-10-17T05:15:14;7.60;;;2.25;;
50932;SDS011;36921;49.006;9.292;2022-10-17T05:17:40;5.90;;;2.17;;
50932;SDS011;36921;49.006;9.292;2022-10-17T05:20:05;6.70;;;2.40;;
50932;SDS011;36921;49.006;9.292;2022-10-17T05:22:31;4.30;;;2.22;;
50932;SDS011;36921;49.006;9.292;2022-10-17T05:24:56;4.00;;;2.17;;
50932;SDS011;36921;49.006;9.292;2022-10-17T05:27:22;4.18;;;2.08;;
50932;SDS011;36921;49.006;9.292;2022-10-17T05:29:47;5.70;;;2.08;;
50932;SDS011;36921;49.006;9.292;2022-10-17T05:32:13;5.93;;;2.90;;
50932;SDS011;36921;49.006;9.292;2022-10-17T05:34:39;3.60;;;2.05;;
50932;SDS011;36921;49.006;9.292;2022-10-17T05:37:04;4.70;;;2.15;;
50932;SDS011;36921;49.006;9.292;2022-10-17T05:39:30;6.35;;;2.80;;
50932;SDS011;36921;49.006;9.292;2022-10-17T05:41:55;5.88;;;2.33;;
50932;SDS011;36921;49.006;9.292;2022-10-17T05:44:20;13.38;;;2.90;;
50932;SDS011;36921;49.006;9.292;2022-10-17T05:46:47;7.25;;;2.42;;
50932;SDS011;36921;49.006;9.292;2022-10-17T05:49:13;3.92;;;2.25;;
50932;SDS011;36921;49.006;9.292;2022-10-17T05:51:38;3.88;;;2.05;;
50932;SDS011;36921;49.006;9.292;2022-10-17T05:54:04;6.28;;;2.40;;
50932;SDS011;36921;49.006;9.292;2022-10-17T05:56:30;8.10;;;2.50;;
50932;SDS011;36921;49.006;9.292;2022-10-17T05:58:56;3.70;;;2.40;;
50932;SDS011;36921;49.006;9.292;2022-10-17T06:01:21;7.90;;;2.33;;
50932;SDS011;36921;49.006;9.292;2022-10-17T06:03:46;3.88;;;2.30;;
50932;SDS011;36921;49.006;9.292;2022-10-17T06:06:12;5.55;;;2.50;;
50932;SDS011;36921;49.006;9.292;2022-10-17T06:08:39;5.22;;;2.30;;
50932;SDS011;36921;49.006;9.292;2022-10-17T06:11:04;5.57;;;2.08;;
50932;SDS011;36921;49.006;9.292;2022-10-17T06:13:30;4.97;;;2.58;;
50932;SDS011;36921;49.006;9.292;2022-10-17T06:15:55;10.32;;;2.03;;
50932;SDS011;36921;49.006;9.292;2022-10-17T06:18:21;6.38;;;2.20;;
50932;SDS011;36921;49.006;9.292;2022-10-17T06:20:46;5.90;;;1.50;;
50932;SDS011;36921;49.006;9.292;2022-10-17T06:23:12;7.85;;;1.83;;
50932;SDS011;36921;49.006;9.292;2022-10-17T06:25:37;2.33;;;1.60;;
50932;SDS011;36921;49.006;9.292;2022-10-17T06:28:03;5.38;;;1.92;;
50932;SDS011;36921;49.006;9.292;2022-10-17T06:30:28;2.78;;;1.48;;
50932;SDS011;36921;49.006;9.292;2022-10-17T06:32:54;8.65;;;2.20;;
50932;SDS011;36921;49.006;9.292;2022-10-17T06:35:19;13.02;;;2.30;;
50932;SDS011;36921;49.006;9.292;2022-10-17T06:37:45;10.20;;;1.88;;
50932;SDS011;36921;49.006;9.292;2022-10-17T06:40:10;14.32;;;2.20;;
50932;SDS011;36921;49.006;9.292;2022-10-17T06:42:36;5.63;;;2.15;;
50932;SDS011;36921;49.006;9.292;2022-10-17T06:45:02;18.98;;;2.97;;
50932;SDS011;36921;49.006;9.292;2022-10-17T06:47:28;8.85;;;2.50;;
50932;SDS011;36921;49.006;9.292;2022-10-17T06:49:53;16.92;;;2.80;;
50932;SDS011;36921;49.006;9.292;2022-10-17T06:52:19;12.73;;;2.53;;
50932;SDS011;36921;49.006;9.292;2022-10-17T06:54:44;10.73;;;2.15;;
50932;SDS011;36921;49.006;9.292;2022-10-17T06:57:10;5.80;;;1.70;;
50932;SDS011;36921;49.006;9.292;2022-10-17T06:59:35;4.28;;;1.55;;
50932;SDS011;36921;49.006;9.292;2022-10-17T07:02:00;13.93;;;1.98;;
50932;SDS011;36921;49.006;9.292;2022-10-17T07:04:26;9.43;;;2.40;;
50932;SDS011;36921;49.006;9.292;2022-10-17T07:06:52;5.68;;;2.65;;
50932;SDS011;36921;49.006;9.292;2022-10-17T07:09:17;6.15;;;2.05;;
50932;SDS011;36921;49.006;9.292;2022-10-17T07:11:43;7.07;;;2.00;;
50932;SDS011;36921;49.006;9.292;2022-10-17T07:14:08;4.65;;;2.00;;
50932;SDS011;36921;49.006;9.292;2022-10-17T07:16:34;7.07;;;2.10;;
50932;SDS011;36921;49.006;9.292;2022-10-17T07:18:59;12.63;;;3.17;;
50932;SDS011;36921;49.006;9.292;2022-10-17T07:21:25;9.40;;;1.80;;
50932;SDS011;36921;49.006;9.292;2022-10-17T07:23:50;8.68;;;1.85;;
50932;SDS011;36921;49.006;9.292;2022-10-17T07:26:16;8.40;;;1.90;;
50932;SDS011;36921;49.006;9.292;2022-10-17T07:28:43;7.63;;;1.83;;
50932;SDS011;36921;49.006;9.292;2022-10-17T07:31:12;6.60;;;1.75;;
50932;SDS011;36921;49.006;9.292;2022-10-17T07:33:39;8.43;;;1.63;;
50932;SDS011;36921;49.006;9.292;2022-10-17T07:36:05;11.82;;;2.05;;
50932;SDS011;36921;49.006;9.292;2022-10-17T07:38:31;7.63;;;1.90;;
50932;SDS011;36921;49.006;9.292;2022-10-17T07:40:57;4.80;;;1.08;;
50932;SDS011;36921;49.006;9.292;2022-10-17T07:43:29;5.40;;;1.67;;
50932;SDS011;36921;49.006;9.292;2022-10-17T07:45:55;6.35;;;1.55;;
50932;SDS011;36921;49.006;9.292;2022-10-17T07:48:21;10.20;;;1.40;;
50932;SDS011;36921;49.006;9.292;2022-10-17T07:50:48;7.55;;;1.50;;
50932;SDS011;36921;49.006;9.292;2022-10-17T07:53:14;6.82;;;2.17;;
50932;SDS011;36921;49.006;9.292;2022-10-17T07:55:39;7.40;;;1.48;;
50932;SDS011;36921;49.006;9.292;2022-10-17T07:58:05;7.85;;;1.20;;
50932;SDS011;36921;49.006;9.292;2022-10-17T08:00:31;8.55;;;1.40;;
50932;SDS011;36921;49.006;9.292;2022-10-17T08:02:57;6.47;;;1.58;;
50932;SDS011;36921;49.006;9.292;2022-10-17T08:05:22;4.90;;;1.40;;
50932;SDS011;36921;49.006;9.292;2022-10-17T08:07:48;3.08;;;1.38;;
50932;SDS011;36921;49.006;9.292;2022-10-17T08:10:14;5.60;;;1.30;;
50932;SDS011;36921;49.006;9.292;2022-10-17T08:12:40;1.90;;;1.42;;
50932;SDS011;36921;49.006;9.292;2022-10-17T08:15:05;4.25;;;1.30;;
50932;SDS011;36921;49.006;9.292;2022-10-17T08:17:35;3.55;;;1.58;;
50932;SDS011;36921;49.006;9.292;2022-10-17T08:20:02;5.80;;;1.33;;
50932;SDS011;36921;49.006;9.292;2022-10-17T08:24:56;5.88;;;1.75;;
50932;SDS011;36921;49.006;9.292;2022-10-17T08:27:21;6.15;;;1.63;;
50932;SDS011;36921;49.006;9.292;2022-10-17T08:29:51;9.68;;;1.67;;
50932;SDS011;36921;49.006;9.292;2022-10-17T08:32:18;16.60;;;1.95;;
50932;SDS011;36921;49.006;9.292;2022-10-17T08:34:44;2.75;;;1.40;;
50932;SDS011;36921;49.006;9.292;2022-10-17T08:37:10;5.05;;;1.30;;
50932;SDS011;36921;49.006;9.292;2022-10-17T08:39:37;3.67;;;1.40;;
50932;SDS011;36921;49.006;9.292;2022-10-17T08:42:08;6.50;;;1.25;;
50932;SDS011;36921;49.006;9.292;2022-10-17T08:47:40;3.28;;;1.17;;
50932;SDS011;36921;49.006;9.292;2022-10-17T08:50:20;6.53;;;1.30;;
50932;SDS011;36921;49.006;9.292;2022-10-17T08:53:20;2.80;;;1.17;;
50932;SDS011;36921;49.006;9.292;2022-10-17T08:55:48;4.28;;;1.02;;
50932;SDS011;36921;49.006;9.292;2022-10-17T08:58:19;3.60;;;1.10;;
50932;SDS011;36921;49.006;9.292;2022-10-17T09:03:43;3.42;;;1.30;;
50932;SDS011;36921;49.006;9.292;2022-10-17T09:09:09;4.18;;;0.90;;
50932;SDS011;36921;49.006;9.292;2022-10-17T09:17:41;4.30;;;1.30;;
50932;SDS011;36921;49.006;9.292;2022-10-17T09:22:46;3.80;;;1.10;;
50932;SDS011;36921;49.006;9.292;2022-10-17T09:25:20;3.28;;;1.23;;
50932;SDS011;36921;49.006;9.292;2022-10-17T09:30:39;2.78;;;1.02;;
50932;SDS011;36921;49.006;9.292;2022-10-17T09:33:49;2.67;;;1.13;;
50932;SDS011;36921;49.006;9.292;2022-10-17T09:36:00;6.60;;;1.10;;
50932;SDS011;36921;49.006;9.292;2022-10-17T09:38:33;2.38;;;1.00;;
50932;SDS011;36921;49.006;9.292;2022-10-17T09:41:06;7.47;;;1.27;;
50932;SDS011;36921;49.006;9.292;2022-10-17T09:43:56;9.32;;;1.83;;
50932;SDS011;36921;49.006;9.292;2022-10-17T09:49:01;0.93;;;0.77;;
50932;SDS011;36921;49.006;9.292;2022-10-17T09:51:32;5.13;;;1.10;;
50932;SDS011;36921;49.006;9.292;2022-10-17T09:54:00;1.30;;;0.88;;
50932;SDS011;36921;49.006;9.292;2022-10-17T09:56:29;2.15;;;0.95;;
50932;SDS011;36921;49.006;9.292;2022-10-17T09:58:57;5.50;;;1.08;;
50932;SDS011;36921;49.006;9.292;2022-10-17T10:01:24;4.40;;;1.10;;
50932;SDS011;36921;49.006;9.292;2022-10-17T10:04:09;4.57;;;1.00;;
50932;SDS011;36921;49.006;9.292;2022-10-17T10:06:37;2.28;;;1.02;;
50932;SDS011;36921;49.006;9.292;2022-10-17T10:09:03;3.47;;;0.90;;
50932;SDS011;36921;49.006;9.292;2022-10-17T10:11:49;8.20;;;1.10;;
50932;SDS011;36921;49.006;9.292;2022-10-17T10:14:31;7.43;;;1.00;;
50932;SDS011;36921;49.006;9.292;2022-10-17T10:17:00;2.05;;;1.10;;
50932;SDS011;36921;49.006;9.292;2022-10-17T10:19:30;5.53;;;0.88;;
50932;SDS011;36921;49.006;9.292;2022-10-17T10:22:01;1.45;;;1.00;;
50932;SDS011;36921;49.006;9.292;2022-10-17T10:24:29;1.67;;;0.70;;
50932;SDS011;36921;49.006;9.292;2022-10-17T10:26:55;4.80;;;0.98;;
50932;SDS011;36921;49.006;9.292;2022-10-17T10:29:27;5.70;;;1.02;;
50932;SDS011;36921;49.006;9.292;2022-10-17T10:37:23;3.08;;;1.10;;
50932;SDS011;36921;49.006;9.292;2022-10-17T10:39:55;3.78;;;1.30;;
50932;SDS011;36921;49.006;9.292;2022-10-17T10:44:50;6.63;;;1.15;;
50932;SDS011;36921;49.006;9.292;2022-10-17T10:47:18;5.53;;;1.10;;
50932;SDS011;36921;49.006;9.292;2022-10-17T10:49:46;3.47;;;0.90;;
50932;SDS011;36921;49.006;9.292;2022-10-17T10:52:31;7.45;;;1.70;;
50932;SDS011;36921;49.006;9.292;2022-10-17T10:57:40;1.42;;;1.00;;
50932;SDS011;36921;49.006;9.292;2022-10-17T11:00:11;11.77;;;1.30;;
50932;SDS011;36921;49.006;9.292;2022-10-17T11:02:53;2.38;;;0.80;;
50932;SDS011;36921;49.006;9.292;2022-10-17T11:08:16;4.65;;;0.90;;
50932;SDS011;36921;49.006;9.292;2022-10-17T11:13:21;9.65;;;1.42;;
50932;SDS011;36921;49.006;9.292;2022-10-17T11:16:01;8.93;;;1.70;;
50932;SDS011;36921;49.006;9.292;2022-10-17T11:18:49;1.52;;;0.80;;
50932;SDS011;36921;49.006;9.292;2022-10-17T11:26:45;3.58;;;0.80;;
50932;SDS011;36921;49.006;9.292;2022-10-17T11:29:17;2.20;;;1.02;;
50932;SDS011;36921;49.006;9.292;2022-10-17T11:31:47;3.60;;;0.93;;
50932;SDS011;36921;49.006;9.292;2022-10-17T11:34:21;2.22;;;1.00;;
50932;SDS011;36921;49.006;9.292;2022-10-17T11:36:50;4.25;;;1.10;;
50932;SDS011;36921;49.006;9.292;2022-10-17T11:39:41;3.42;;;1.27;;
50932;SDS011;36921;49.006;9.292;2022-10-17T11:45:08;6.25;;;1.65;;
50932;SDS011;36921;49.006;9.292;2022-10-17T11:47:49;6.25;;;1.50;;
50932;SDS011;36921;49.006;9.292;2022-10-17T11:50:25;1.98;;;1.08;;
50932;SDS011;36921;49.006;9.292;2022-10-17T11:55:26;2.75;;;1.58;;
50932;SDS011;36921;49.006;9.292;2022-10-17T12:03:18;2.45;;;1.10;;
50932;SDS011;36921;49.006;9.292;2022-10-17T12:14:01;3.17;;;1.50;;
50932;SDS011;36921;49.006;9.292;2022-10-17T12:21:26;2.35;;;1.15;;
50932;SDS011;36921;49.006;9.292;2022-10-17T12:23:53;6.15;;;1.20;;
50932;SDS011;36921;49.006;9.292;2022-10-17T12:26:25;5.07;;;1.00;;
50932;SDS011;36921;49.006;9.292;2022-10-17T12:28:52;3.28;;;1.17;;
50932;SDS011;36921;49.006;9.292;2022-10-17T12:33:55;2.93;;;1.13;;
50932;SDS011;36921;49.006;9.292;2022-10-17T12:54:59;2.33;;;1.00;;
50932;SDS011;36921;49.006;9.292;2022-10-17T12:57:29;2.67;;;0.90;;
50932;SDS011;36921;49.006;9.292;2022-10-17T13:03:20;4.32;;;0.85;;
50932;SDS011;36921;49.006;9.292;2022-10-17T13:05:49;2.95;;;1.17;;
50932;SDS011;36921;49.006;9.292;2022-10-17T13:08:22;2.33;;;1.13;;
50932;SDS011;36921;49.006;9.292;2022-10-17T13:10:52;7.93;;;1.52;;
50932;SDS011;36921;49.006;9.292;2022-10-17T13:13:19;12.50;;;2.05;;
50932;SDS011;36921;49.006;9.292;2022-10-17T13:15:49;5.40;;;1.00;;
50932;SDS011;36921;49.006;9.292;2022-10-17T13:18:20;2.95;;;1.15;;
50932;SDS011;36921;49.006;9.292;2022-10-17T13:20:57;5.65;;;1.20;;
50932;SDS011;36921;49.006;9.292;2022-10-17T13:23:23;2.78;;;1.00;;
50932;SDS011;36921;49.006;9.292;2022-10-17T13:28:34;3.65;;;1.10;;
50932;SDS011;36921;49.006;9.292;2022-10-17T13:31:00;2.50;;;0.88;;
50932;SDS011;36921;49.006;9.292;2022-10-17T13:33:30;3.20;;;1.00;;
50932;SDS011;36921;49.006;9.292;2022-10-17T13:35:59;3.67;;;1.10;;
50932;SDS011;36921;49.006;9.292;2022-10-17T13:38:29;4.28;;;1.20;;
50932;SDS011;36921;49.006;9.292;2022-10-17T13:40:57;4.43;;;1.25;;
50932;SDS011;36921;49.006;9.292;2022-10-17T13:43:23;8.25;;;1.10;;
50932;SDS011;36921;49.006;9.292;2022-10-17T13:45:52;6.65;;;1.00;;
50932;SDS011;36921;49.006;9.292;2022-10-17T13:48:22;7.45;;;1.10;;
50932;SDS011;36921;49.006;9.292;2022-10-17T13:50:54;6.93;;;1.13;;
50932;SDS011;36921;49.006;9.292;2022-10-17T13:53:34;2.08;;;1.00;;
50932;SDS011;36921;49.006;9.292;2022-10-17T13:59:01;2.92;;;1.42;;
50932;SDS011;36921;49.006;9.292;2022-10-17T14:01:41;4.22;;;1.20;;
50932;SDS011;36921;49.006;9.292;2022-10-17T14:04:07;4.03;;;1.15;;
50932;SDS011;36921;49.006;9.292;2022-10-17T14:06:33;3.30;;;1.30;;
50932;SDS011;36921;49.006;9.292;2022-10-17T14:09:05;8.57;;;1.27;;
50932;SDS011;36921;49.006;9.292;2022-10-17T14:11:41;6.47;;;1.00;;
50932;SDS011;36921;49.006;9.292;2022-10-17T14:14:18;5.18;;;1.15;;
50932;SDS011;36921;49.006;9.292;2022-10-17T14:16:46;1.63;;;1.10;;
50932;SDS011;36921;49.006;9.292;2022-10-17T14:19:22;6.68;;;1.20;;
50932;SDS011;36921;49.006;9.292;2022-10-17T14:21:53;5.35;;;1.08;;
50932;SDS011;36921;49.006;9.292;2022-10-17T14:26:49;3.20;;;1.03;;
50932;SDS011;36921;49.006;9.292;2022-10-17T14:29:21;4.82;;;1.10;;
50932;SDS011;36921;49.006;9.292;2022-10-17T14:31:55;4.65;;;1.02;;
50932;SDS011;36921;49.006;9.292;2022-10-17T14:34:44;4.72;;;1.48;;
50932;SDS011;36921;49.006;9.292;2022-10-17T14:40:18;5.07;;;1.08;;
50932;SDS011;36921;49.006;9.292;2022-10-17T14:42:48;5.30;;;1.30;;
50932;SDS011;36921;49.006;9.292;2022-10-17T14:45:24;3.55;;;1.05;;
50932;SDS011;36921;49.006;9.292;2022-10-17T14:47:54;2.75;;;1.10;;
50932;SDS011;36921;49.006;9.292;2022-10-17T14:50:25;6.00;;;1.30;;
50932;SDS011;36921;49.006;9.292;2022-10-17T14:55:39;1.73;;;0.90;;
50932;SDS011;36921;49.006;9.292;2022-10-17T14:58:21;2.20;;;0.90;;
50932;SDS011;36921;49.006;9.292;2022-10-17T15:00:49;3.25;;;1.10;;
50932;SDS011;36921;49.006;9.292;2022-10-17T15:03:15;3.00;;;1.02;;
50932;SDS011;36921;49.006;9.292;2022-10-17T15:05:43;9.23;;;1.50;;
50932;SDS011;36921;49.006;9.292;2022-10-17T15:08:10;4.15;;;1.10;;
50932;SDS011;36921;49.006;9.292;2022-10-17T15:10:38;5.25;;;1.08;;
50932;SDS011;36921;49.006;9.292;2022-10-17T15:13:07;2.97;;;1.20;;
50932;SDS011;36921;49.006;9.292;2022-10-17T15:15:34;5.45;;;1.30;;
50932;SDS011;36921;49.006;9.292;2022-10-17T15:18:00;2.22;;;1.15;;
50932;SDS011;36921;49.006;9.292;2022-10-17T15:20:26;3.72;;;1.33;;
50932;SDS011;36921;49.006;9.292;2022-10-17T15:22:54;5.82;;;1.00;;
50932;SDS011;36921;49.006;9.292;2022-10-17T15:25:23;5.55;;;1.35;;
50932;SDS011;36921;49.006;9.292;2022-10-17T15:27:50;3.45;;;1.00;;
50932;SDS011;36921;49.006;9.292;2022-10-17T15:30:26;5.43;;;1.15;;
50932;SDS011;36921;49.006;9.292;2022-10-17T15:32:53;3.80;;;1.30;;
50932;SDS011;36921;49.006;9.292;2022-10-17T15:35:19;3.95;;;1.30;;
50932;SDS011;36921;49.006;9.292;2022-10-17T15:37:45;4.03;;;1.17;;
50932;SDS011;36921;49.006;9.292;2022-10-17T15:40:18;3.92;;;1.42;;
50932;SDS011;36921;49.006;9.292;2022-10-17T15:42:45;5.75;;;1.13;;
50932;SDS011;36921;49.006;9.292;2022-10-17T15:45:11;3.17;;;1.15;;
50932;SDS011;36921;49.006;9.292;2022-10-17T15:47:39;3.15;;;1.10;;
50932;SDS011;36921;49.006;9.292;2022-10-17T15:50:05;5.07;;;1.40;;
50932;SDS011;36921;49.006;9.292;2022-10-17T15:52:33;3.95;;;1.35;;
50932;SDS011;36921;49.006;9.292;2022-10-17T15:54:59;7.25;;;1.88;;
50932;SDS011;36921;49.006;9.292;2022-10-17T15:57:26;2.55;;;1.20;;
50932;SDS011;36921;49.006;9.292;2022-10-17T15:59:53;2.50;;;1.20;;
50932;SDS011;36921;49.006;9.292;2022-10-17T16:02:21;6.70;;;1.38;;
50932;SDS011;36921;49.006;9.292;2022-10-17T16:04:47;4.15;;;1.45;;
50932;SDS011;36921;49.006;9.292;2022-10-17T16:07:14;5.32;;;1.27;;
50932;SDS011;36921;49.006;9.292;2022-10-17T16:09:39;4.05;;;1.40;;
50932;SDS011;36921;49.006;9.292;2022-10-17T16:12:06;4.82;;;1.65;;
50932;SDS011;36921;49.006;9.292;2022-10-17T16:14:37;7.20;;;1.63;;
50932;SDS011;36921;49.006;9.292;2022-10-17T16:17:03;6.95;;;1.77;;
50932;SDS011;36921;49.006;9.292;2022-10-17T16:19:29;4.47;;;1.77;;
50932;SDS011;36921;49.006;9.292;2022-10-17T16:21:55;6.30;;;1.95;;
50932;SDS011;36921;49.006;9.292;2022-10-17T16:24:21;10.32;;;2.15;;
50932;SDS011;36921;49.006;9.292;2022-10-17T16:26:47;9.90;;;2.05;;
50932;SDS011;36921;49.006;9.292;2022-10-17T16:29:13;7.43;;;2.70;;
50932;SDS011;36921;49.006;9.292;2022-10-17T16:31:39;6.65;;;2.67;;
50932;SDS011;36921;49.006;9.292;2022-10-17T16:34:09;11.70;;;3.67;;
50932;SDS011;36921;49.006;9.292;2022-10-17T16:36:35;12.25;;;3.90;;
50932;SDS011;36921;49.006;9.292;2022-10-17T16:39:00;6.38;;;2.72;;
50932;SDS011;36921;49.006;9.292;2022-10-17T16:41:27;9.10;;;2.13;;
50932;SDS011;36921;49.006;9.292;2022-10-17T16:43:57;11.73;;;2.40;;
50932;SDS011;36921;49.006;9.292;2022-10-17T16:46:24;5.20;;;1.98;;
50932;SDS011;36921;49.006;9.292;2022-10-17T16:48:51;10.55;;;2.28;;
50932;SDS011;36921;49.006;9.292;2022-10-17T16:51:18;19.73;;;3.05;;
50932;SDS011;36921;49.006;9.292;2022-10-17T16:53:45;17.60;;;3.05;;
50932;SDS011;36921;49.006;9.292;2022-10-17T16:56:12;8.95;;;2.53;;
50932;SDS011;36921;49.006;9.292;2022-10-17T16:58:40;7.72;;;2.70;;
50932;SDS011;36921;49.006;9.292;2022-10-17T17:01:07;7.43;;;2.20;;
50932;SDS011;36921;49.006;9.292;2022-10-17T17:03:37;6.13;;;2.28;;
50932;SDS011;36921;49.006;9.292;2022-10-17T17:06:04;7.68;;;2.80;;
50932;SDS011;36921;49.006;9.292;2022-10-17T17:08:31;6.20;;;2.10;;
50932;SDS011;36921;49.006;9.292;2022-10-17T17:10:57;7.57;;;2.13;;
50932;SDS011;36921;49.006;9.292;2022-10-17T17:13:23;6.28;;;2.20;;
50932;SDS011;36921;49.006;9.292;2022-10-17T17:15:49;6.00;;;2.05;;
50932;SDS011;36921;49.006;9.292;2022-10-17T17:18:18;7.65;;;2.50;;
50932;SDS011;36921;49.006;9.292;2022-10-17T17:20:46;12.95;;;3.20;;